createdAt,value
2023-04-24T00:00:02.626Z,10.40
2023-04-24T00:02:29.841Z,10.40
2023-04-24T00:04:57.710Z,10.40
2023-04-24T00:07:24.912Z,10.40
2023-04-24T00:09:51.984Z,10.40
2023-04-24T00:12:19.094Z,10.40
2023-04-24T00:14:46.161Z,10.40
2023-04-24T00:17:13.436Z,10.40
2023-04-24T00:19:40.686Z,10.30
2023-04-24T00:22:08.121Z,10.30
2023-04-24T00:24:35.090Z,10.30
2023-04-24T00:27:02.251Z,10.30
2023-04-24T00:29:29.722Z,10.30
2023-04-24T00:31:57.024Z,10.30
2023-04-24T00:34:24.269Z,10.30
2023-04-24T00:36:53.314Z,10.30
2023-04-24T00:39:21.101Z,10.30
2023-04-24T00:41:49.403Z,10.30
2023-04-24T00:44:16.590Z,10.30
2023-04-24T00:46:44.600Z,10.30
2023-04-24T00:49:13.000Z,10.30
2023-04-24T00:51:41.836Z,10.30
2023-04-24T00:54:08.928Z,10.30
2023-04-24T00:56:36.151Z,10.30
2023-04-24T00:59:03.396Z,10.20
2023-04-24T01:01:30.584Z,10.20
2023-04-24T01:04:00.412Z,10.20
2023-04-24T01:06:32.319Z,10.20
2023-04-24T01:09:01.514Z,10.20
2023-04-24T01:11:28.676Z,10.20
2023-04-24T01:13:55.912Z,10.20
2023-04-24T01:16:22.994Z,10.20
2023-04-24T01:18:50.314Z,10.20
2023-04-24T01:21:18.289Z,10.10
2023-04-24T01:23:46.926Z,10.20
2023-04-24T01:26:16.190Z,10.20
2023-04-24T01:28:43.677Z,10.20
2023-04-24T01:31:10.762Z,10.10
2023-04-24T01:33:38.056Z,10.10
2023-04-24T01:36:05.839Z,10.10
2023-04-24T01:38:32.896Z,10.10
2023-04-24T01:40:59.948Z,10.10
2023-04-24T01:43:27.145Z,10.10
2023-04-24T01:45:54.115Z,10.10
2023-04-24T01:48:21.515Z,10.10
2023-04-24T01:50:48.544Z,10.00
2023-04-24T01:53:15.740Z,10.00
2023-04-24T01:55:42.842Z,10.00
2023-04-24T01:58:10.302Z,10.00
2023-04-24T02:00:37.452Z,10.00
2023-04-24T02:03:04.640Z,10.00
2023-04-24T02:05:31.850Z,10.00
2023-04-24T02:07:58.919Z,9.90
2023-04-24T02:10:26.449Z,9.90
2023-04-24T02:12:53.470Z,9.80
2023-04-24T02:15:20.600Z,9.80
2023-04-24T02:17:47.718Z,9.90
2023-04-24T02:20:14.897Z,9.90
2023-04-24T02:22:41.949Z,9.80
2023-04-24T02:25:09.523Z,9.80
2023-04-24T02:27:36.517Z,9.90
2023-04-24T02:30:04.312Z,9.90
2023-04-24T02:32:32.096Z,9.90
2023-04-24T02:34:59.172Z,9.90
2023-04-24T02:37:26.496Z,9.90
2023-04-24T02:39:53.591Z,9.80
2023-04-24T02:42:20.612Z,9.80
2023-04-24T02:44:47.770Z,9.70
2023-04-24T02:47:14.870Z,9.70
2023-04-24T02:49:42.262Z,9.60
2023-04-24T02:52:09.492Z,9.50
2023-04-24T02:54:36.531Z,9.50
2023-04-24T02:57:03.734Z,9.50
2023-04-24T02:59:31.893Z,9.40
2023-04-24T03:01:58.939Z,9.40
2023-04-24T03:04:26.233Z,9.40
2023-04-24T03:06:55.916Z,9.40
2023-04-24T03:09:23.321Z,9.40
2023-04-24T03:11:51.009Z,9.40
2023-04-24T03:14:18.392Z,9.40
2023-04-24T03:16:45.806Z,9.40
2023-04-24T03:19:12.923Z,9.30
2023-04-24T03:21:41.835Z,9.30
2023-04-24T03:24:10.287Z,9.20
2023-04-24T03:26:37.405Z,9.20
2023-04-24T03:29:04.619Z,9.20
2023-04-24T03:31:31.747Z,9.20
2023-04-24T03:33:58.814Z,9.10
2023-04-24T03:36:27.166Z,9.20
2023-04-24T03:38:54.383Z,9.20
2023-04-24T03:41:21.585Z,9.20
2023-04-24T03:43:48.682Z,9.20
2023-04-24T03:46:16.436Z,9.20
2023-04-24T03:48:43.648Z,9.10
2023-04-24T03:51:10.798Z,9.00
2023-04-24T03:53:37.963Z,9.10
2023-04-24T03:56:05.084Z,9.10
2023-04-24T03:58:32.307Z,9.10
2023-04-24T04:00:59.700Z,9.20
2023-04-24T04:03:27.334Z,9.20
2023-04-24T04:05:55.370Z,9.30
2023-04-24T04:08:22.376Z,9.30
2023-04-24T04:10:49.652Z,9.30
2023-04-24T04:13:16.615Z,9.30
2023-04-24T04:15:43.883Z,9.20
2023-04-24T04:18:11.081Z,9.30
2023-04-24T04:20:38.252Z,9.20
2023-04-24T04:23:05.225Z,9.20
2023-04-24T04:25:32.282Z,9.20
2023-04-24T04:28:00.724Z,9.30
2023-04-24T04:30:27.848Z,9.30
2023-04-24T04:32:54.864Z,9.30
2023-04-24T04:35:23.045Z,9.40
2023-04-24T04:37:50.484Z,9.50
2023-04-24T04:40:17.495Z,9.50
2023-04-24T04:42:47.145Z,9.50
2023-04-24T04:45:14.277Z,9.60
2023-04-24T04:47:41.285Z,9.60
2023-04-24T04:50:08.787Z,9.60
2023-04-24T04:52:35.879Z,9.60
2023-04-24T04:55:03.380Z,9.70
2023-04-24T04:57:31.320Z,9.70
2023-04-24T04:59:58.409Z,9.70
2023-04-24T05:02:25.541Z,9.70
2023-04-24T05:04:52.896Z,9.70
2023-04-24T05:07:20.124Z,9.70
2023-04-24T05:09:47.314Z,9.80
2023-04-24T05:12:14.272Z,9.80
2023-04-24T05:14:41.721Z,9.80
2023-04-24T05:17:08.814Z,9.70
2023-04-24T05:19:37.146Z,9.70
2023-04-24T05:22:05.415Z,9.70
2023-04-24T05:24:32.461Z,9.70
2023-04-24T05:27:00.393Z,9.70
2023-04-24T05:29:27.716Z,9.70
2023-04-24T05:31:54.853Z,9.80
2023-04-24T05:34:21.922Z,9.80
2023-04-24T05:36:49.281Z,9.80
2023-04-24T05:39:16.396Z,9.90
2023-04-24T05:41:43.738Z,9.90
2023-04-24T05:44:10.818Z,9.90
2023-04-24T05:46:42.170Z,10.00
2023-04-24T05:49:14.942Z,10.00
2023-04-24T05:51:42.483Z,10.00
2023-04-24T05:54:13.349Z,10.00
2023-04-24T05:56:52.999Z,10.00
2023-04-24T05:59:20.288Z,9.90
2023-04-24T06:01:47.499Z,9.90
2023-04-24T06:04:15.282Z,9.90
2023-04-24T06:06:42.494Z,9.90
2023-04-24T06:09:09.827Z,10.00
2023-04-24T06:11:37.029Z,10.00
2023-04-24T06:14:04.108Z,10.10
2023-04-24T06:16:32.143Z,10.10
2023-04-24T06:18:59.521Z,10.20
2023-04-24T06:21:26.830Z,10.30
2023-04-24T06:23:53.778Z,10.40
2023-04-24T06:26:21.229Z,10.60
2023-04-24T06:28:48.281Z,10.70
2023-04-24T06:31:15.509Z,10.70
2023-04-24T06:33:42.560Z,10.60
2023-04-24T06:36:09.691Z,10.40
2023-04-24T06:38:37.024Z,10.30
2023-04-24T06:41:06.215Z,10.30
2023-04-24T06:43:33.535Z,10.30
2023-04-24T06:46:01.637Z,10.40
2023-04-24T06:48:28.730Z,10.60
2023-04-24T06:50:55.792Z,10.70
2023-04-24T06:53:22.814Z,10.90
2023-04-24T06:55:50.166Z,10.90
2023-04-24T06:58:17.193Z,11.00
2023-04-24T07:00:44.433Z,11.10
2023-04-24T07:03:11.629Z,11.10
2023-04-24T07:05:39.687Z,11.10
2023-04-24T07:08:07.948Z,11.10
2023-04-24T07:10:36.883Z,11.10
2023-04-24T07:13:03.871Z,11.30
2023-04-24T07:15:31.262Z,11.30
2023-04-24T07:17:58.281Z,11.70
2023-04-24T07:20:25.415Z,11.70
2023-04-24T07:22:53.037Z,11.50
2023-04-24T07:25:20.411Z,11.20
2023-04-24T07:27:47.428Z,11.60
2023-04-24T07:30:16.952Z,12.20
2023-04-24T07:32:44.093Z,12.40
2023-04-24T07:35:11.317Z,12.30
2023-04-24T07:37:38.556Z,12.20
2023-04-24T07:40:06.330Z,12.30
2023-04-24T07:42:35.816Z,12.60
2023-04-24T07:45:03.150Z,13.80
2023-04-24T07:47:31.070Z,15.10
2023-04-24T07:49:58.223Z,16.20
2023-04-24T07:52:25.971Z,15.90
2023-04-24T07:54:59.444Z,15.20
2023-04-24T07:57:26.901Z,14.70
2023-04-24T07:59:54.050Z,14.10
2023-04-24T08:02:22.938Z,13.90
2023-04-24T08:04:50.194Z,13.80
2023-04-24T08:07:18.129Z,13.90
2023-04-24T08:09:45.322Z,14.00
2023-04-24T08:12:12.575Z,14.20
2023-04-24T08:14:39.697Z,14.60
2023-04-24T08:17:06.879Z,15.20
2023-04-24T08:19:34.017Z,16.00
2023-04-24T08:22:01.140Z,16.60
2023-04-24T08:24:28.274Z,16.60
2023-04-24T08:26:57.858Z,15.90
2023-04-24T08:29:25.333Z,15.40
2023-04-24T08:31:52.443Z,15.20
2023-04-24T08:34:19.548Z,15.40
2023-04-24T08:36:47.718Z,15.50
2023-04-24T08:39:15.769Z,15.60
2023-04-24T08:41:46.675Z,15.40
2023-04-24T08:44:16.776Z,15.60
2023-04-24T08:46:48.875Z,15.60
2023-04-24T08:49:19.916Z,15.20
2023-04-24T08:51:48.792Z,14.40
2023-04-24T08:54:16.078Z,13.90
2023-04-24T08:56:45.251Z,13.90
2023-04-24T08:59:13.179Z,14.30
2023-04-24T09:01:42.047Z,14.80
2023-04-24T09:04:12.249Z,15.20
2023-04-24T09:06:40.012Z,15.40
2023-04-24T09:09:07.207Z,15.50
2023-04-24T09:11:34.350Z,15.50
2023-04-24T09:14:02.339Z,15.80
2023-04-24T09:16:29.440Z,15.70
2023-04-24T09:18:57.049Z,15.70
2023-04-24T09:21:24.969Z,15.90
2023-04-24T09:24:23.706Z,15.50
2023-04-24T09:26:59.412Z,14.80
2023-04-24T09:29:26.610Z,15.30
2023-04-24T09:31:53.778Z,16.00
2023-04-24T09:34:28.170Z,16.50
2023-04-24T09:36:55.908Z,17.00
2023-04-24T09:39:23.024Z,17.20
2023-04-24T09:41:52.474Z,16.80
2023-04-24T09:44:24.244Z,16.70
2023-04-24T09:46:53.532Z,16.70
2023-04-24T09:49:29.138Z,16.50
2023-04-24T09:52:11.011Z,15.80
2023-04-24T09:54:39.505Z,15.70
2023-04-24T09:57:09.430Z,15.50
2023-04-24T09:59:37.447Z,16.00
2023-04-24T10:02:17.510Z,16.60
2023-04-24T10:04:57.529Z,16.90
2023-04-24T10:07:27.423Z,17.10
2023-04-24T10:09:55.051Z,17.20
2023-04-24T10:12:22.948Z,17.10
2023-04-24T10:14:50.187Z,17.30
2023-04-24T10:17:17.639Z,17.80
2023-04-24T10:19:45.023Z,17.10
2023-04-24T10:22:12.716Z,16.60
2023-04-24T10:24:40.559Z,16.60
2023-04-24T10:27:09.328Z,16.40
2023-04-24T10:29:37.622Z,16.10
2023-04-24T10:32:04.671Z,16.20
2023-04-24T10:34:31.682Z,16.90
2023-04-24T10:36:58.991Z,17.30
2023-04-24T10:39:27.884Z,17.20
2023-04-24T10:41:59.018Z,16.90
2023-04-24T10:44:26.152Z,16.70
2023-04-24T10:46:57.409Z,15.90
2023-04-24T10:49:32.362Z,15.40
2023-04-24T10:52:08.678Z,15.40
2023-04-24T10:54:35.774Z,15.30
2023-04-24T10:57:21.867Z,14.90
2023-04-24T10:59:51.810Z,14.60
2023-04-24T11:02:19.788Z,14.40
2023-04-24T11:04:47.492Z,14.30
2023-04-24T11:07:14.985Z,14.20
2023-04-24T11:09:44.471Z,13.90
2023-04-24T11:12:15.067Z,13.60
2023-04-24T11:14:58.053Z,13.40
2023-04-24T11:17:39.377Z,14.20
2023-04-24T11:20:27.628Z,15.30
2023-04-24T11:22:56.498Z,15.80
2023-04-24T11:25:23.999Z,16.10
2023-04-24T11:27:51.605Z,15.80
2023-04-24T11:30:21.214Z,15.90
2023-04-24T11:32:54.696Z,15.90
2023-04-24T11:35:26.171Z,15.90
2023-04-24T11:40:26.595Z,15.80
2023-04-24T11:42:56.735Z,16.40
2023-04-24T11:45:24.903Z,16.50
2023-04-24T11:47:52.406Z,16.50
2023-04-24T11:50:22.817Z,16.20
2023-04-24T11:52:51.373Z,15.90
2023-04-24T11:55:18.764Z,15.40
2023-04-24T11:57:47.246Z,15.00
2023-04-24T12:00:18.455Z,14.60
2023-04-24T12:02:46.290Z,14.20
2023-04-24T12:05:27.242Z,13.70
2023-04-24T12:07:55.871Z,13.20
2023-04-24T12:10:24.708Z,12.80
2023-04-24T12:12:52.553Z,12.50
2023-04-24T12:15:22.255Z,12.50
2023-04-24T12:17:53.803Z,12.50
2023-04-24T12:20:30.309Z,12.80
2023-04-24T12:22:59.251Z,13.40
2023-04-24T12:25:35.836Z,14.20
2023-04-24T12:28:05.982Z,15.10
2023-04-24T12:30:42.297Z,15.80
2023-04-24T12:33:09.494Z,16.00
2023-04-24T12:35:37.090Z,15.80
2023-04-24T12:38:09.395Z,15.90
2023-04-24T12:40:37.243Z,16.00
2023-04-24T12:43:15.738Z,16.10
2023-04-24T12:45:42.716Z,15.90
2023-04-24T12:48:09.806Z,15.40
2023-04-24T12:50:36.855Z,14.80
2023-04-24T12:53:03.955Z,14.30
2023-04-24T12:55:31.016Z,13.80
2023-04-24T12:57:57.957Z,13.30
2023-04-24T13:00:24.996Z,12.90
2023-04-24T13:02:52.349Z,12.70
2023-04-24T13:05:19.924Z,12.60
2023-04-24T13:07:49.235Z,12.40
2023-04-24T13:10:16.478Z,12.20
2023-04-24T13:12:46.751Z,11.90
2023-04-24T13:15:14.474Z,11.80
2023-04-24T13:17:41.561Z,11.70
2023-04-24T13:20:08.948Z,12.00
2023-04-24T13:22:36.939Z,12.60
2023-04-24T13:25:04.680Z,13.60
2023-04-24T13:27:31.768Z,14.60
2023-04-24T13:29:58.815Z,15.30
2023-04-24T13:32:26.417Z,15.70
2023-04-24T13:34:53.464Z,15.90
2023-04-24T13:37:20.511Z,16.00
2023-04-24T13:39:47.505Z,15.40
2023-04-24T13:42:14.535Z,14.60
2023-04-24T13:44:42.939Z,14.30
2023-04-24T13:47:10.144Z,14.10
2023-04-24T13:49:37.227Z,14.20
2023-04-24T13:52:04.264Z,14.30
2023-04-24T13:54:31.446Z,14.50
2023-04-24T13:56:59.867Z,14.60
2023-04-24T13:59:27.195Z,14.50
2023-04-24T14:01:54.311Z,14.70
2023-04-24T14:04:21.697Z,14.70
2023-04-24T14:06:49.007Z,14.30
2023-04-24T14:09:16.419Z,14.00
2023-04-24T14:11:43.486Z,13.50
2023-04-24T14:14:10.497Z,12.60
2023-04-24T14:16:37.738Z,12.40
2023-04-24T14:19:06.683Z,12.30
2023-04-24T14:21:34.482Z,12.40
2023-04-24T14:24:01.696Z,12.80
2023-04-24T14:26:28.777Z,13.40
2023-04-24T14:29:04.050Z,13.70
2023-04-24T14:31:38.399Z,13.80
2023-04-24T14:34:05.509Z,13.80
2023-04-24T14:36:32.665Z,13.90
2023-04-24T14:38:59.710Z,14.20
2023-04-24T14:41:26.761Z,14.30
2023-04-24T14:43:53.686Z,14.10
2023-04-24T14:46:21.312Z,13.70
2023-04-24T14:48:48.473Z,13.90
2023-04-24T14:51:15.773Z,14.10
2023-04-24T14:53:42.925Z,14.00
2023-04-24T14:56:10.069Z,14.00
2023-04-24T14:58:37.062Z,13.60
2023-04-24T15:01:04.188Z,13.20
2023-04-24T15:03:32.226Z,12.90
2023-04-24T15:05:59.518Z,12.60
2023-04-24T15:08:26.516Z,12.40
2023-04-24T15:10:53.863Z,12.20
2023-04-24T15:13:21.155Z,12.10
2023-04-24T15:15:48.853Z,12.20
2023-04-24T15:18:15.937Z,12.20
2023-04-24T15:20:43.149Z,12.00
2023-04-24T15:23:10.754Z,12.10
2023-04-24T15:25:39.376Z,12.30
2023-04-24T15:28:07.168Z,12.60
2023-04-24T15:30:34.299Z,13.00
2023-04-24T15:33:04.739Z,13.40
2023-04-24T15:35:31.856Z,13.90
2023-04-24T15:37:59.012Z,14.10
2023-04-24T15:40:26.032Z,14.10
2023-04-24T15:42:53.090Z,13.70
2023-04-24T15:45:20.347Z,13.30
2023-04-24T15:47:47.724Z,13.00
2023-04-24T15:50:16.637Z,12.80
2023-04-24T15:52:44.377Z,12.80
2023-04-24T15:55:12.630Z,12.80
2023-04-24T15:57:41.804Z,12.60
2023-04-24T16:00:11.228Z,12.50
2023-04-24T16:02:38.649Z,12.50
2023-04-24T16:05:07.875Z,12.60
2023-04-24T16:07:36.278Z,12.60
2023-04-24T16:10:03.500Z,12.60
2023-04-24T16:12:30.949Z,12.60
2023-04-24T16:14:58.254Z,12.50
2023-04-24T16:17:25.472Z,12.50
2023-04-24T16:19:52.704Z,12.50
2023-04-24T16:22:19.936Z,12.60
2023-04-24T16:24:48.227Z,12.50
2023-04-24T16:27:16.048Z,12.50
2023-04-24T16:29:43.159Z,12.50
2023-04-24T16:32:11.139Z,12.50
2023-04-24T16:34:38.312Z,12.60
2023-04-24T16:37:06.578Z,12.80
2023-04-24T16:39:33.808Z,13.00
2023-04-24T16:42:02.025Z,12.90
2023-04-24T16:44:29.069Z,12.80
2023-04-24T16:46:56.951Z,12.70
2023-04-24T16:49:24.260Z,12.40
2023-04-24T16:51:51.462Z,12.20
2023-04-24T16:54:18.481Z,12.00
2023-04-24T16:56:45.946Z,11.80
2023-04-24T16:59:13.101Z,11.80
2023-04-24T17:01:40.320Z,11.70
2023-04-24T17:04:07.694Z,11.50
2023-04-24T17:06:35.669Z,11.50
2023-04-24T17:09:03.988Z,11.40
2023-04-24T17:11:31.438Z,11.40
2023-04-24T17:14:01.615Z,11.40
2023-04-24T17:16:29.461Z,11.50
2023-04-24T17:18:56.580Z,11.50
2023-04-24T17:21:23.869Z,11.50
2023-04-24T17:23:51.022Z,11.40
2023-04-24T17:26:18.149Z,11.40
2023-04-24T17:28:45.296Z,11.40
2023-04-24T17:31:12.694Z,11.30
2023-04-24T17:33:39.806Z,11.30
2023-04-24T17:36:07.443Z,11.20
2023-04-24T17:38:34.603Z,11.20
2023-04-24T17:41:01.766Z,11.20
2023-04-24T17:43:29.066Z,11.20
2023-04-24T17:45:56.697Z,11.20
2023-04-24T17:48:24.081Z,11.10
2023-04-24T17:50:51.847Z,11.00
2023-04-24T17:53:19.550Z,11.00
2023-04-24T17:55:46.901Z,10.90
2023-04-24T17:58:14.616Z,10.90
2023-04-24T18:00:42.266Z,10.90
2023-04-24T18:03:10.537Z,10.80
2023-04-24T18:05:39.165Z,10.70
2023-04-24T18:08:06.666Z,10.60
2023-04-24T18:10:36.530Z,10.40
2023-04-24T18:13:04.995Z,10.20
2023-04-24T18:15:32.321Z,10.10
2023-04-24T18:17:59.870Z,9.90
2023-04-24T18:20:27.372Z,9.80
2023-04-24T18:22:54.553Z,9.80
2023-04-24T18:25:26.992Z,9.60
2023-04-24T18:27:55.917Z,9.60
2023-04-24T18:30:24.288Z,9.50
2023-04-24T18:32:53.429Z,9.50
2023-04-24T18:35:21.379Z,9.60
2023-04-24T18:37:48.809Z,9.60
2023-04-24T18:40:16.158Z,9.50
2023-04-24T18:42:44.480Z,9.60
2023-04-24T18:45:14.686Z,9.60
2023-04-24T18:47:43.464Z,9.50
2023-04-24T18:50:11.350Z,9.30
2023-04-24T18:52:38.578Z,9.20
2023-04-24T18:55:07.286Z,9.20
2023-04-24T18:57:34.483Z,9.10
2023-04-24T19:00:01.769Z,9.00
2023-04-24T19:02:29.341Z,8.90
2023-04-24T19:04:56.442Z,8.90
2023-04-24T19:07:23.560Z,8.90
2023-04-24T19:09:50.555Z,8.90
2023-04-24T19:12:17.984Z,8.90
2023-04-24T19:14:46.495Z,8.90
2023-04-24T19:17:14.092Z,8.80
2023-04-24T19:19:41.094Z,8.80
2023-04-24T19:22:08.181Z,8.80
2023-04-24T19:24:35.631Z,8.80
2023-04-24T19:27:02.848Z,8.80
2023-04-24T19:29:29.968Z,8.70
2023-04-24T19:31:58.759Z,8.70
2023-04-24T19:34:26.582Z,8.60
2023-04-24T19:36:53.648Z,8.60
2023-04-24T19:39:20.802Z,8.60
2023-04-24T19:41:48.058Z,8.60
2023-04-24T19:44:17.395Z,8.60
2023-04-24T19:46:44.614Z,8.60
2023-04-24T19:49:12.125Z,8.70
2023-04-24T19:51:39.539Z,8.70
2023-04-24T19:54:07.013Z,8.70
2023-04-24T19:56:34.151Z,8.70
2023-04-24T19:59:01.240Z,8.70
2023-04-24T20:01:28.487Z,8.70
2023-04-24T20:03:55.883Z,8.70
2023-04-24T20:06:23.190Z,8.70
2023-04-24T20:08:50.824Z,8.70
2023-04-24T20:11:18.852Z,8.70
2023-04-24T20:13:46.046Z,8.70
2023-04-24T20:16:13.311Z,8.70
2023-04-24T20:18:40.616Z,8.70
2023-04-24T20:21:09.441Z,8.70
2023-04-24T20:23:37.457Z,8.70
2023-04-24T20:26:05.132Z,8.60
2023-04-24T20:28:32.946Z,8.70
2023-04-24T20:31:00.455Z,8.70
2023-04-24T20:33:28.665Z,8.60
2023-04-24T20:35:55.857Z,8.70
2023-04-24T20:38:24.532Z,8.70
2023-04-24T20:43:23.448Z,8.70
2023-04-24T20:45:51.151Z,8.70
2023-04-24T20:48:18.327Z,8.70
2023-04-24T20:50:45.508Z,8.70
2023-04-24T20:53:12.542Z,8.70
2023-04-24T20:55:39.752Z,8.80
2023-04-24T20:58:06.786Z,8.80
2023-04-24T21:00:34.180Z,8.80
2023-04-24T21:03:01.618Z,8.70
2023-04-24T21:05:28.722Z,8.70
2023-04-24T21:07:56.313Z,8.70
2023-04-24T21:10:24.425Z,8.70
2023-04-24T21:12:51.481Z,8.70
2023-04-24T21:15:18.816Z,8.70
2023-04-24T21:17:46.129Z,8.70
2023-04-24T21:20:13.411Z,8.70
2023-04-24T21:22:40.419Z,8.70
2023-04-24T21:25:08.662Z,8.70
2023-04-24T21:27:36.722Z,8.70
2023-04-24T21:30:06.500Z,8.70
2023-04-24T21:32:33.770Z,8.60
2023-04-24T21:35:01.050Z,8.60
2023-04-24T21:37:28.189Z,8.60
2023-04-24T21:39:55.363Z,8.60
2023-04-24T21:42:22.582Z,8.60
2023-04-24T21:44:49.616Z,8.60
2023-04-24T21:47:16.697Z,8.60
2023-04-24T21:49:43.739Z,8.60
2023-04-24T21:52:10.685Z,8.60
2023-04-24T21:54:37.951Z,8.60
2023-04-24T21:57:05.520Z,8.70
2023-04-24T21:59:33.641Z,8.70
2023-04-24T22:02:00.765Z,8.70
2023-04-24T22:04:27.962Z,8.70
2023-04-24T22:06:55.316Z,8.70
2023-04-24T22:09:22.338Z,8.70
2023-04-24T22:11:49.563Z,8.70
2023-04-24T22:14:17.342Z,8.70
2023-04-24T22:16:46.140Z,8.70
2023-04-24T22:19:13.286Z,8.70
2023-04-24T22:21:41.058Z,8.70
2023-04-24T22:24:09.783Z,8.80
2023-04-24T22:26:36.777Z,8.80
2023-04-24T22:29:03.793Z,8.80
2023-04-24T22:31:30.912Z,8.80
2023-04-24T22:33:58.116Z,8.70
2023-04-24T22:36:25.184Z,8.70
2023-04-24T22:38:52.391Z,8.70
2023-04-24T22:41:19.433Z,8.60
2023-04-24T22:43:46.833Z,8.50
2023-04-24T22:46:13.990Z,8.40
2023-04-24T22:48:41.181Z,8.30
2023-04-24T22:51:08.303Z,8.20
2023-04-24T22:53:36.373Z,8.20
2023-04-24T22:56:03.575Z,8.20
2023-04-24T22:58:30.821Z,8.20
2023-04-24T23:00:58.035Z,8.20
2023-04-24T23:03:25.876Z,8.20
2023-04-24T23:05:53.157Z,8.20
2023-04-24T23:08:20.419Z,8.20
2023-04-24T23:10:48.076Z,8.10
2023-04-24T23:13:15.398Z,8.10
2023-04-24T23:15:42.567Z,8.10
2023-04-24T23:18:09.863Z,8.10
2023-04-24T23:20:37.668Z,8.10
2023-04-24T23:23:05.506Z,8.10
2023-04-24T23:25:33.154Z,8.10
2023-04-24T23:28:00.155Z,8.10
2023-04-24T23:30:27.416Z,8.10
2023-04-24T23:32:54.492Z,8.10
2023-04-24T23:35:21.588Z,8.00
2023-04-24T23:37:48.656Z,8.00
2023-04-24T23:40:15.768Z,8.00
2023-04-24T23:42:42.789Z,7.90
2023-04-24T23:45:11.107Z,7.90
2023-04-24T23:47:38.786Z,7.90
2023-04-24T23:50:06.392Z,7.90
2023-04-24T23:52:35.427Z,7.90
2023-04-24T23:55:04.804Z,7.80
2023-04-24T23:57:32.374Z,7.80
2023-04-24T23:59:59.496Z,7.70
